Time;durP1;ratioP1;P1;durP2;ratioP2;P2;SDS_P1;SDS_P2;PMS_P1;PMS_P2;Temp;Humidity;BMP_temperature;BMP_pressure;BME280_temperature;BME280_humidity;BME280_pressure;Samples;Min_cycle;Max_cycle;Signal;HPM_P1;HPM_P2
2021/01/10 00:00:27;;;;;;;20.20;12.43;;;;;;;-1.22;72.11;99598.50;5092059;28;20398;-67
2021/01/10 00:02:56;;;;;;;21.17;13.23;;;;;;;-1.20;72.01;99594.84;5093408;28;20047;-67
2021/01/10 00:05:25;;;;;;;20.17;12.48;;;;;;;-1.25;71.65;99592.56;5092903;28;20036;-67
2021/01/10 00:07:52;;;;;;;17.02;12.07;;;;;;;-1.36;71.79;99595.00;5093217;28;20051;-66
2021/01/10 00:10:20;;;;;;;18.40;12.40;;;;;;;-1.47;72.32;99600.06;5092989;28;20405;-67
2021/01/10 00:12:46;;;;;;;20.40;12.30;;;;;;;-1.57;72.28;99596.38;5091988;28;20090;-66
2021/01/10 00:15:16;;;;;;;17.52;11.43;;;;;;;-1.68;72.65;99598.78;5092650;28;20048;-67
2021/01/10 00:17:45;;;;;;;18.70;12.15;;;;;;;-1.72;72.77;99599.91;5091675;28;20055;-67
2021/01/10 00:20:14;;;;;;;19.45;12.27;;;;;;;-1.70;73.08;99590.28;5093176;28;20575;-67
2021/01/10 00:22:41;;;;;;;20.27;12.23;;;;;;;-1.70;72.78;99598.91;5093496;28;20401;-66
2021/01/10 00:25:10;;;;;;;17.38;11.50;;;;;;;-1.74;72.80;99594.81;5091125;28;20052;-66
2021/01/10 00:27:40;;;;;;;17.30;11.85;;;;;;;-1.75;73.08;99595.75;5092980;28;20109;-67
2021/01/10 00:30:08;;;;;;;20.15;12.93;;;;;;;-1.73;72.85;99588.72;5092920;28;20062;-67
2021/01/10 00:32:39;;;;;;;54.38;25.20;;;;;;;-1.80;72.82;99590.00;5091768;28;20127;-67
2021/01/10 00:35:08;;;;;;;28.02;15.10;;;;;;;-1.80;73.18;99598.66;5092451;28;20654;-66
2021/01/10 00:37:35;;;;;;;16.42;10.43;;;;;;;-1.84;72.89;99589.41;5092956;28;20040;-66
2021/01/10 00:40:03;;;;;;;17.63;10.75;;;;;;;-1.93;73.04;99599.47;5092825;28;20445;-67
2021/01/10 00:42:30;;;;;;;17.20;11.10;;;;;;;-2.00;73.41;99589.50;5093019;28;20044;-67
2021/01/10 00:44:56;;;;;;;14.85;10.20;;;;;;;-2.01;73.42;99592.16;5091227;28;20559;-66
2021/01/10 00:47:24;;;;;;;14.50;9.55;;;;;;;-2.03;73.46;99594.84;5091571;28;20044;-66
2021/01/10 00:49:51;;;;;;;14.13;8.98;;;;;;;-2.10;73.11;99595.31;5092619;28;20043;-66
2021/01/10 00:52:19;;;;;;;13.38;9.02;;;;;;;-2.17;73.35;99594.03;5091584;28;20461;-66
2021/01/10 00:54:47;;;;;;;14.32;9.75;;;;;;;-2.22;73.58;99599.47;5091143;28;20044;-67
2021/01/10 00:57:15;;;;;;;13.65;9.60;;;;;;;-2.26;73.95;99593.66;5093325;28;20044;-67
2021/01/10 00:59:42;;;;;;;15.27;9.40;;;;;;;-2.19;73.81;99595.88;5091221;28;20580;-67
2021/01/10 01:02:12;;;;;;;12.75;8.90;;;;;;;-2.19;73.69;99588.13;5092891;28;20051;-67
2021/01/10 01:04:41;;;;;;;14.57;9.32;;;;;;;-2.21;73.83;99588.19;5093789;28;20048;-67
2021/01/10 01:07:09;;;;;;;16.48;9.68;;;;;;;-2.26;73.68;99596.25;5096592;28;20040;-67
2021/01/10 01:09:37;;;;;;;15.40;9.40;;;;;;;-2.34;73.89;99590.69;5095358;28;20040;-66
2021/01/10 01:12:14;;;;;;;14.45;8.65;;;;;;;-2.30;73.93;99596.50;5097196;28;20044;-65
2021/01/10 01:14:41;;;;;;;12.95;8.52;;;;;;;-2.30;74.06;99594.75;5098940;28;20055;-66
2021/01/10 01:17:08;;;;;;;11.93;8.07;;;;;;;-2.22;74.02;99589.13;5099475;28;20039;-66
2021/01/10 01:19:34;;;;;;;11.05;7.55;;;;;;;-2.21;73.50;99608.06;5099287;28;20086;-65
2021/01/10 01:22:01;;;;;;;14.63;8.50;;;;;;;-2.27;73.59;99602.34;5099468;28;20040;-65
2021/01/10 01:24:28;;;;;;;13.85;7.97;;;;;;;-2.32;73.59;99613.91;5099054;28;20406;-66
2021/01/10 01:26:55;;;;;;;12.20;8.10;;;;;;;-2.31;73.71;99615.56;5100097;28;20067;-65
2021/01/10 01:29:22;;;;;;;12.45;8.32;;;;;;;-2.28;73.78;99611.06;5098026;28;20078;-65
2021/01/10 01:31:49;;;;;;;13.85;7.68;;;;;;;-2.27;73.71;99607.53;5099994;28;20043;-66
2021/01/10 01:34:16;;;;;;;12.38;8.35;;;;;;;-2.21;73.82;99613.25;5098544;28;20048;-66
2021/01/10 01:36:42;;;;;;;16.00;8.95;;;;;;;-2.17;73.56;99610.38;5099743;28;20055;-65
2021/01/10 01:39:09;;;;;;;12.68;8.50;;;;;;;-2.22;73.44;99604.66;5098572;28;20040;-65
2021/01/10 01:41:37;;;;;;;14.60;9.07;;;;;;;-2.21;73.57;99611.50;5099706;28;20116;-65
2021/01/10 01:44:04;;;;;;;14.32;8.25;;;;;;;-2.17;73.71;99609.56;5099881;28;20366;-66
2021/01/10 01:46:33;;;;;;;13.85;9.35;;;;;;;-2.15;73.42;99615.50;5098743;28;20123;-66
2021/01/10 01:49:04;;;;;;;14.82;9.60;;;;;;;-2.19;73.36;99614.03;5099887;28;20082;-66
2021/01/10 01:51:31;;;;;;;14.30;9.02;;;;;;;-2.25;73.22;99617.78;5100359;28;20048;-66
2021/01/10 01:53:58;;;;;;;12.85;8.75;;;;;;;-2.34;73.25;99618.34;5098275;28;20516;-65
2021/01/10 01:56:25;;;;;;;13.75;8.02;;;;;;;-2.35;73.67;99617.50;5098216;28;20142;-65
2021/01/10 01:58:57;;;;;;;16.02;8.85;;;;;;;-2.20;73.72;99609.78;5099644;28;20044;-66
2021/01/10 02:01:26;;;;;;;16.20;9.10;;;;;;;-2.09;73.37;99615.13;5099772;28;20054;-65
2021/01/10 02:03:59;;;;;;;14.23;9.02;;;;;;;-2.01;73.25;99613.72;5100297;28;20040;-65
2021/01/10 02:06:32;;;;;;;12.38;8.73;;;;;;;-2.00;72.60;99612.00;5101015;28;20042;-66
2021/01/10 02:09:05;;;;;;;14.15;9.32;;;;;;;-2.20;72.45;99612.34;5103712;28;20508;-66
2021/01/10 02:11:33;;;;;;;14.82;9.68;;;;;;;-2.27;72.83;99617.06;5103496;28;20052;-66
2021/01/10 02:14:05;;;;;;;14.20;9.35;;;;;;;-2.33;72.84;99609.66;5101957;28;20540;-65
2021/01/10 02:16:34;;;;;;;15.48;9.60;;;;;;;-2.39;72.97;99613.44;5100220;28;20047;-66
2021/01/10 02:19:05;;;;;;;15.93;9.52;;;;;;;-2.45;72.89;99608.63;5100025;28;20040;-65
2021/01/10 02:21:32;;;;;;;16.35;9.50;;;;;;;-2.51;73.22;99609.00;5097826;28;20056;-65
2021/01/10 02:24:05;;;;;;;13.75;9.30;;;;;;;-2.51;73.00;99606.41;5097893;28;20044;-65
2021/01/10 02:26:32;;;;;;;13.73;9.07;;;;;;;-2.55;73.13;99608.31;5100319;28;20058;-65
2021/01/10 02:28:59;;;;;;;13.80;8.85;;;;;;;-2.53;73.41;99606.50;5100500;28;20044;-65
2021/01/10 02:31:30;;;;;;;13.27;8.70;;;;;;;-2.51;73.72;99599.47;5096200;28;20127;-65
2021/01/10 02:33:58;;;;;;;10.93;8.10;;;;;;;-2.39;73.33;99602.25;5095600;28;20059;-66
2021/01/10 02:36:31;;;;;;;9.32;7.13;;;;;;;-2.38;73.35;99585.78;5094429;28;20044;-66
2021/01/10 02:39:04;;;;;;;11.68;6.45;;;;;;;-2.44;72.80;99593.94;5094617;28;20040;-66
2021/01/10 02:41:42;;;;;;;10.60;6.60;;;;;;;-2.53;73.00;99597.91;5094692;28;20043;-66
2021/01/10 02:44:17;;;;;;;8.80;6.65;;;;;;;-2.49;73.45;99591.63;5094628;28;20284;-66
2021/01/10 02:46:48;;;;;;;10.20;6.15;;;;;;;-2.47;73.03;99586.34;5094461;28;20048;-67
2021/01/10 02:49:16;;;;;;;9.30;6.55;;;;;;;-2.50;73.05;99588.16;5094569;28;20101;-66
2021/01/10 02:51:43;;;;;;;9.57;6.65;;;;;;;-2.57;72.64;99586.06;5094396;28;20040;-65
2021/01/10 02:54:11;;;;;;;10.57;6.47;;;;;;;-2.66;72.97;99584.81;5094330;28;20033;-66
2021/01/10 02:56:44;;;;;;;8.50;6.28;;;;;;;-2.67;72.95;99582.31;5094320;28;20058;-65
2021/01/10 02:59:16;;;;;;;7.53;6.22;;;;;;;-2.73;72.94;99586.13;5094316;28;20482;-66
2021/01/10 03:01:46;;;;;;;12.18;7.78;;;;;;;-2.78;72.95;99576.03;5094535;28;20039;-66
2021/01/10 03:04:14;;;;;;;9.43;7.03;;;;;;;-2.84;73.23;99580.72;5094051;28;20421;-66
2021/01/10 03:06:44;;;;;;;8.32;6.50;;;;;;;-2.86;73.12;99587.72;5094006;28;20040;-65
2021/01/10 03:09:12;;;;;;;11.98;7.72;;;;;;;-2.93;73.55;99587.28;5093763;28;20044;-65
2021/01/10 03:11:40;;;;;;;12.93;7.68;;;;;;;-2.90;73.44;99583.66;5092651;28;20040;-66
2021/01/10 03:14:07;;;;;;;13.77;8.63;;;;;;;-3.03;73.52;99581.78;5093846;28;20040;-66
2021/01/10 03:16:36;;;;;;;12.38;8.57;;;;;;;-3.17;73.88;99581.75;5093660;28;20047;-65
2021/01/10 03:19:03;;;;;;;13.50;8.57;;;;;;;-3.10;73.95;99577.06;5093723;28;20040;-66
2021/01/10 03:21:30;;;;;;;12.15;8.35;;;;;;;-3.09;74.01;99583.91;5093739;28;20063;-66
2021/01/10 03:23:57;;;;;;;14.55;9.25;;;;;;;-3.06;74.07;99586.31;5093692;28;20036;-66
2021/01/10 03:26:24;;;;;;;15.80;8.90;;;;;;;-3.03;74.17;99586.13;5091987;28;20048;-66
2021/01/10 03:28:51;;;;;;;15.00;9.15;;;;;;;-2.92;74.13;99582.94;5093568;28;20044;-65
2021/01/10 03:31:18;;;;;;;12.85;8.85;;;;;;;-2.78;73.92;99588.13;5092439;28;20421;-65
2021/01/10 03:33:46;;;;;;;12.88;8.70;;;;;;;-2.68;73.66;99584.09;5093464;28;20486;-65
2021/01/10 03:36:13;;;;;;;11.70;8.52;;;;;;;-2.60;73.49;99592.25;5093099;28;20036;-65
2021/01/10 03:38:40;;;;;;;15.07;9.45;;;;;;;-2.75;73.45;99586.19;5093410;28;20043;-66
2021/01/10 03:41:07;;;;;;;14.95;9.98;;;;;;;-2.68;73.34;99586.69;5093401;28;20051;-66
2021/01/10 03:43:33;;;;;;;14.45;8.98;;;;;;;-2.60;73.22;99588.81;5092063;28;20052;-66
2021/01/10 03:46:03;;;;;;;13.05;9.48;;;;;;;-2.53;72.98;99593.56;5092952;28;20101;-66
2021/01/10 03:48:32;;;;;;;12.65;8.95;;;;;;;-2.52;72.88;99595.22;5093313;28;20044;-66
2021/01/10 03:50:59;;;;;;;15.48;9.73;;;;;;;-2.54;72.46;99593.63;5093223;28;20500;-66
2021/01/10 03:53:26;;;;;;;13.82;10.07;;;;;;;-2.60;72.36;99589.66;5093195;28;20051;-66
2021/01/10 03:55:52;;;;;;;13.63;9.07;;;;;;;-2.55;72.37;99587.63;5093001;28;20044;-66
2021/01/10 03:58:19;;;;;;;17.20;9.20;;;;;;;-2.58;72.05;99586.97;5092975;28;20051;-66
2021/01/10 04:00:45;;;;;;;14.93;9.75;;;;;;;-2.60;72.10;99594.00;5093048;28;20044;-66
2021/01/10 04:03:13;;;;;;;15.45;9.88;;;;;;;-2.65;72.15;99602.03;5092999;28;20043;-65
2021/01/10 04:05:40;;;;;;;15.00;8.73;;;;;;;-2.64;72.20;99592.50;5092605;28;20048;-65
2021/01/10 04:08:07;;;;;;;15.07;9.40;;;;;;;-2.70;71.89;99591.09;5093235;28;20043;-65
2021/01/10 04:10:34;;;;;;;13.15;9.38;;;;;;;-2.73;71.94;99593.88;5092852;28;20498;-65
2021/01/10 04:13:01;;;;;;;14.25;8.52;;;;;;;-2.84;72.10;99591.91;5093018;28;20085;-66
2021/01/10 04:15:28;;;;;;;12.90;8.68;;;;;;;-2.84;72.15;99591.06;5092499;28;20040;-66
2021/01/10 04:17:55;;;;;;;17.13;9.93;;;;;;;-2.85;72.06;99594.59;5092662;28;20036;-66
2021/01/10 04:20:22;;;;;;;15.30;9.52;;;;;;;-2.82;72.18;99587.50;5092853;28;20040;-64
2021/01/10 04:22:49;;;;;;;14.10;8.80;;;;;;;-2.82;72.12;99584.03;5092814;28;20040;-65
2021/01/10 04:25:16;;;;;;;15.40;10.18;;;;;;;-2.83;72.24;99578.03;5092442;28;20058;-64
2021/01/10 04:27:42;;;;;;;15.18;8.23;;;;;;;-2.82;72.17;99586.63;5093051;28;20089;-65
2021/01/10 04:30:10;;;;;;;13.10;8.60;;;;;;;-2.80;72.02;99577.88;5092433;28;20036;-65
2021/01/10 04:32:38;;;;;;;15.65;9.20;;;;;;;-2.79;71.81;99581.28;5092742;28;20052;-64
2021/01/10 04:35:06;;;;;;;15.40;9.15;;;;;;;-2.85;71.90;99577.31;5093068;28;20043;-64
2021/01/10 04:37:33;;;;;;;13.82;8.63;;;;;;;-2.87;71.94;99570.56;5092912;28;20051;-65
2021/01/10 04:40:02;;;;;;;14.02;9.00;;;;;;;-2.86;71.98;99569.63;5092513;28;20039;-65
2021/01/10 04:42:29;;;;;;;17.92;9.93;;;;;;;-2.86;71.93;99570.47;5092828;28;20047;-65
2021/01/10 04:44:58;;;;;;;11.95;8.77;;;;;;;-2.89;71.74;99569.81;5092079;28;20111;-65
2021/01/10 04:47:24;;;;;;;13.20;8.55;;;;;;;-2.99;71.85;99570.31;5092570;28;20044;-66
2021/01/10 04:49:52;;;;;;;16.27;9.98;;;;;;;-2.99;71.98;99574.66;5092379;28;20052;-65
2021/01/10 04:52:20;;;;;;;14.02;9.32;;;;;;;-2.96;71.94;99578.84;5091004;28;20044;-65
2021/01/10 04:54:51;;;;;;;14.40;8.77;;;;;;;-2.97;71.90;99584.94;5090766;28;20056;-65
2021/01/10 04:57:19;;;;;;;15.13;10.20;;;;;;;-2.93;72.08;99586.44;5092060;28;20040;-65
2021/01/10 04:59:47;;;;;;;13.77;9.07;;;;;;;-3.02;72.00;99588.63;5092260;28;20437;-65
2021/01/10 05:02:18;;;;;;;14.57;9.90;;;;;;;-3.04;71.96;99587.88;5092266;28;20047;-66
2021/01/10 05:04:45;;;;;;;13.55;8.45;;;;;;;-3.02;71.88;99580.03;5092066;28;20044;-65
2021/01/10 05:07:14;;;;;;;16.80;9.77;;;;;;;-3.08;71.94;99588.97;5090738;28;20051;-65
2021/01/10 05:09:42;;;;;;;13.35;8.60;;;;;;;-3.06;71.89;99584.56;5092030;28;20040;-65
2021/01/10 05:12:10;;;;;;;13.70;9.38;;;;;;;-3.02;72.06;99590.41;5090782;28;20117;-65
2021/01/10 05:14:36;;;;;;;15.05;9.15;;;;;;;-3.00;71.88;99586.78;5091739;28;20044;-65
2021/01/10 05:17:03;;;;;;;15.02;8.80;;;;;;;-3.13;71.78;99591.00;5091841;28;20036;-65
2021/01/10 05:19:31;;;;;;;14.05;9.32;;;;;;;-3.09;72.08;99594.25;5091912;28;20044;-65
2021/01/10 05:22:05;;;;;;;13.30;9.45;;;;;;;-3.05;72.00;99595.72;5092161;28;20103;-66
2021/01/10 05:24:31;;;;;;;17.63;9.02;;;;;;;-3.06;71.89;99587.16;5091617;28;20374;-65
2021/01/10 05:26:59;;;;;;;13.63;8.60;;;;;;;-3.06;71.87;99589.72;5091981;28;20052;-66
2021/01/10 05:29:27;;;;;;;14.23;9.15;;;;;;;-3.03;71.80;99591.28;5091849;28;20429;-65
2021/01/10 05:31:54;;;;;;;14.65;9.27;;;;;;;-3.03;71.86;99593.88;5091965;28;20067;-65
2021/01/10 05:34:22;;;;;;;12.55;9.15;;;;;;;-3.02;71.85;99593.81;5090738;28;20570;-65
2021/01/10 05:36:49;;;;;;;13.52;8.85;;;;;;;-3.00;71.68;99602.28;5091919;28;20062;-65
2021/01/10 05:39:18;;;;;;;15.30;9.50;;;;;;;-3.07;71.04;99602.72;5091808;28;20032;-65
2021/01/10 05:41:55;;;;;;;15.43;9.23;;;;;;;-3.29;71.32;99605.69;5093854;28;20048;-65
2021/01/10 05:44:23;;;;;;;14.65;9.50;;;;;;;-3.38;71.66;99603.63;5095392;28;20044;-65
2021/01/10 05:47:01;;;;;;;16.13;9.88;;;;;;;-3.44;72.05;99591.84;5095735;28;20047;-65
2021/01/10 05:49:28;;;;;;;15.93;10.13;;;;;;;-3.53;71.77;99593.19;5095604;28;20028;-66
2021/01/10 05:51:55;;;;;;;17.90;10.57;;;;;;;-3.59;72.16;99595.31;5095370;28;20498;-65
2021/01/10 05:54:35;;;;;;;13.82;9.20;;;;;;;-3.62;72.40;99600.63;5093843;28;20051;-66
2021/01/10 05:57:04;;;;;;;13.88;9.35;;;;;;;-3.68;72.10;99601.78;5095560;28;20562;-65
2021/01/10 05:59:34;;;;;;;15.45;8.73;;;;;;;-3.80;72.24;99592.97;5094038;28;20070;-65
2021/01/10 06:02:04;;;;;;;15.40;9.55;;;;;;;-4.07;72.87;99605.59;5093949;28;20078;-65
2021/01/10 06:04:32;;;;;;;17.70;9.52;;;;;;;-4.13;73.20;99605.91;5095155;28;20404;-65
2021/01/10 06:06:59;;;;;;;13.02;8.73;;;;;;;-4.05;73.20;99610.66;5093740;28;20051;-65
2021/01/10 06:09:26;;;;;;;13.20;8.38;;;;;;;-4.02;73.37;99603.59;5095073;28;20067;-65
2021/01/10 06:11:53;;;;;;;14.50;9.23;;;;;;;-3.97;73.15;99607.69;5094959;28;20048;-65
2021/01/10 06:14:21;;;;;;;12.95;8.00;;;;;;;-4.00;72.97;99619.03;5094573;28;20052;-65
2021/01/10 06:16:56;;;;;;;15.43;9.45;;;;;;;-4.02;73.11;99611.34;5093580;28;20089;-65
2021/01/10 06:19:28;;;;;;;15.15;9.20;;;;;;;-4.09;72.97;99611.75;5094883;28;20401;-65
2021/01/10 06:22:00;;;;;;;12.77;8.45;;;;;;;-4.11;73.29;99616.16;5094783;28;20074;-65
2021/01/10 06:24:33;;;;;;;13.85;9.30;;;;;;;-4.11;73.43;99611.84;5094711;28;20558;-65
2021/01/10 06:27:06;;;;;;;13.52;8.88;;;;;;;-4.09;73.35;99615.16;5094713;28;20047;-65
2021/01/10 06:29:39;;;;;;;15.25;8.82;;;;;;;-4.11;73.33;99617.00;5094771;28;20036;-65
2021/01/10 06:32:11;;;;;;;13.68;9.00;;;;;;;-4.10;73.27;99615.25;5093554;28;20040;-65
2021/01/10 06:34:41;;;;;;;10.93;7.93;;;;;;;-4.08;73.52;99613.44;5094380;28;20098;-66
2021/01/10 06:37:09;;;;;;;12.82;8.93;;;;;;;-4.06;73.35;99609.00;5094452;28;20050;-65
2021/01/10 06:39:45;;;;;;;12.38;8.23;;;;;;;-4.02;73.21;99605.34;5094324;28;20040;-65
2021/01/10 06:42:13;;;;;;;12.27;7.45;;;;;;;-4.05;73.22;99608.91;5094418;28;20052;-65
2021/01/10 06:44:43;;;;;;;12.93;8.07;;;;;;;-4.02;73.31;99606.19;5092799;28;20059;-65
2021/01/10 06:47:18;;;;;;;14.57;8.73;;;;;;;-4.05;73.24;99608.91;5094850;28;20051;-65
2021/01/10 06:49:46;;;;;;;12.18;7.78;;;;;;;-4.01;72.96;99613.00;5094964;28;20032;-65
2021/01/10 06:52:13;;;;;;;13.02;8.18;;;;;;;-4.06;72.69;99609.84;5092873;28;20066;-65
2021/01/10 06:54:44;;;;;;;12.65;7.95;;;;;;;-4.06;72.96;99604.66;5094058;28;20048;-66
2021/01/10 06:57:12;;;;;;;12.07;8.13;;;;;;;-4.05;73.13;99606.34;5092679;28;20062;-66
2021/01/10 07:00:00;;;;;;;14.07;8.75;;;;;;;-4.20;72.68;99608.91;5094207;28;20123;-66
2021/01/10 07:02:27;;;;;;;13.02;8.50;;;;;;;-4.27;72.91;99596.31;5094052;28;20126;-66
2021/01/10 07:05:02;;;;;;;13.60;8.65;;;;;;;-4.34;72.83;99609.59;5092579;28;20421;-66
2021/01/10 07:07:40;;;;;;;15.00;8.98;;;;;;;-4.37;73.01;99613.19;5092814;28;20055;-66
2021/01/10 07:10:10;;;;;;;16.20;8.68;;;;;;;-4.36;73.20;99609.69;5094201;28;20046;-66
2021/01/10 07:12:37;;;;;;;14.05;8.35;;;;;;;-4.39;73.29;99616.75;5094053;28;20521;-66
2021/01/10 07:15:23;;;;;;;14.50;8.98;;;;;;;-4.41;73.33;99616.84;5093910;28;20126;-66
2021/01/10 07:18:04;;;;;;;14.57;9.18;;;;;;;-4.50;73.39;99618.13;5094130;28;20052;-66
2021/01/10 07:20:33;;;;;;;19.20;10.27;;;;;;;-4.46;73.59;99612.81;5092781;28;20055;-66
2021/01/10 07:23:27;;;;;;;13.75;8.70;;;;;;;-4.39;73.58;99612.41;5094100;28;20581;-66
2021/01/10 07:25:55;;;;;;;13.70;7.90;;;;;;;-4.23;73.24;99609.88;5094135;28;20051;-66
2021/01/10 07:28:44;;;;;;;13.65;8.93;;;;;;;-4.11;73.05;99608.41;5094362;28;20040;-65
2021/01/10 07:31:13;;;;;;;14.38;8.65;;;;;;;-4.25;72.99;99599.66;5093937;28;20123;-66
2021/01/10 07:33:41;;;;;;;11.90;8.45;;;;;;;-4.17;72.92;99609.56;5093754;28;20126;-66
2021/01/10 07:36:09;;;;;;;18.25;10.70;;;;;;;-4.16;73.04;99607.84;5092082;28;20131;-66
2021/01/10 07:38:37;;;;;;;14.38;8.95;;;;;;;-4.19;72.77;99613.16;5093679;28;20091;-65
2021/01/10 07:41:36;;;;;;;14.60;9.02;;;;;;;-4.25;72.93;99614.28;5093602;28;20043;-66
2021/01/10 07:44:04;;;;;;;12.50;8.25;;;;;;;-4.16;72.99;99610.41;5093655;28;20055;-65
2021/01/10 07:47:01;;;;;;;14.57;9.32;;;;;;;-4.13;72.91;99616.22;5093201;28;20120;-65
2021/01/10 07:49:51;;;;;;;12.60;7.97;;;;;;;-4.04;72.88;99615.78;5093353;28;20539;-65
2021/01/10 07:52:57;;;;;;;15.82;9.60;;;;;;;-4.05;72.38;99618.41;5093528;28;20506;-65
2021/01/10 07:55:27;;;;;;;12.95;8.48;;;;;;;-4.00;72.53;99625.03;5092950;28;20578;-65
2021/01/10 07:58:15;;;;;;;14.10;8.48;;;;;;;-4.01;72.14;99628.50;5093692;28;20056;-65
2021/01/10 08:00:53;;;;;;;13.27;9.00;;;;;;;-4.01;72.12;99620.75;5093347;28;20036;-65
2021/01/10 08:03:23;;;;;;;15.15;9.65;;;;;;;-3.94;71.99;99630.78;5092717;28;20047;-65
2021/01/10 08:06:01;;;;;;;14.43;8.88;;;;;;;-3.96;71.85;99635.19;5092736;28;20107;-65
2021/01/10 08:08:40;;;;;;;18.08;10.38;;;;;;;-3.96;72.37;99635.19;5093182;28;20052;-65
2021/01/10 08:11:07;;;;;;;14.88;10.05;;;;;;;-3.86;72.66;99629.44;5093106;28;20040;-65
2021/01/10 08:13:36;;;;;;;16.88;10.10;;;;;;;-3.68;72.56;99632.78;5093006;28;20402;-65
2021/01/10 08:16:05;;;;;;;16.63;10.05;;;;;;;-3.61;72.12;99631.56;5092656;28;20444;-65
2021/01/10 08:18:35;;;;;;;14.63;9.52;;;;;;;-3.49;72.29;99630.88;5093107;28;20075;-65
2021/01/10 08:21:08;;;;;;;16.70;10.88;;;;;;;-3.43;72.08;99637.50;5093390;28;20040;-65
2021/01/10 08:23:35;;;;;;;19.85;12.50;;;;;;;-3.28;72.11;99635.81;5091927;28;20059;-65
2021/01/10 08:26:06;;;;;;;15.20;9.98;;;;;;;-3.10;71.96;99641.72;5092365;28;20047;-66
2021/01/10 08:28:34;;;;;;;16.70;10.82;;;;;;;-3.01;71.49;99641.19;5092581;28;20051;-66
2021/01/10 08:31:03;;;;;;;19.95;11.15;;;;;;;-3.01;71.10;99636.84;5093164;28;20452;-65
2021/01/10 08:33:30;;;;;;;16.02;10.43;;;;;;;-2.92;71.36;99643.25;5092539;28;20048;-66
2021/01/10 08:36:09;;;;;;;17.15;11.50;;;;;;;-2.92;70.67;99648.44;5092083;28;20048;-66
2021/01/10 08:38:36;;;;;;;16.90;10.45;;;;;;;-3.08;70.54;99651.03;5092804;28;20047;-66
2021/01/10 08:41:04;;;;;;;14.73;10.15;;;;;;;-3.21;70.65;99662.16;5092546;28;20044;-65
2021/01/10 08:43:31;;;;;;;17.55;9.38;;;;;;;-3.21;70.95;99657.81;5092589;28;20075;-66
2021/01/10 08:46:10;;;;;;;15.50;9.98;;;;;;;-3.12;71.22;99653.91;5091116;28;20044;-66
2021/01/10 08:48:37;;;;;;;17.70;11.50;;;;;;;-2.93;71.19;99653.72;5092288;28;20093;-66
2021/01/10 08:51:07;;;;;;;19.02;11.52;;;;;;;-2.82;71.10;99661.69;5092729;28;20063;-65
2021/01/10 08:53:41;;;;;;;15.82;11.13;;;;;;;-2.69;71.11;99657.50;5092609;28;20401;-67
2021/01/10 08:56:15;;;;;;;17.88;11.02;;;;;;;-2.62;71.01;99663.13;5090864;28;20064;-65
2021/01/10 08:58:42;;;;;;;16.73;10.68;;;;;;;-2.49;70.67;99658.94;5092162;28;20047;-66
2021/01/10 09:01:11;;;;;;;19.25;12.35;;;;;;;-2.42;70.50;99656.81;5092317;28;20080;-65
2021/01/10 09:03:38;;;;;;;19.15;12.60;;;;;;;-2.37;70.24;99653.03;5092056;28;20101;-66
2021/01/10 09:06:05;;;;;;;13.13;10.18;;;;;;;-2.30;70.20;99659.50;5091941;28;20040;-66
2021/01/10 09:08:38;;;;;;;16.77;10.15;;;;;;;-2.22;69.65;99658.22;5092167;28;20071;-66
2021/01/10 09:11:11;;;;;;;16.65;11.45;;;;;;;-2.22;69.72;99661.66;5092140;28;20048;-65
2021/01/10 09:13:43;;;;;;;18.70;10.47;;;;;;;-2.22;69.44;99656.47;5092306;28;20055;-66
2021/01/10 09:16:12;;;;;;;18.92;11.18;;;;;;;-2.15;70.17;99662.97;5094661;28;20131;-65
2021/01/10 09:18:41;;;;;;;14.55;10.15;;;;;;;-2.02;70.07;99663.06;5096181;28;20043;-65
2021/01/10 09:21:13;;;;;;;14.40;9.90;;;;;;;-1.97;69.20;99665.38;5096471;28;20072;-65
2021/01/10 09:23:48;;;;;;;16.70;10.32;;;;;;;-2.04;68.96;99662.34;5096403;28;20062;-65
2021/01/10 09:26:30;;;;;;;14.85;9.98;;;;;;;-2.05;69.48;99661.47;5095837;28;20490;-65
2021/01/10 09:28:58;;;;;;;16.13;10.55;;;;;;;-1.95;69.59;99668.72;5096269;28;20055;-65
2021/01/10 09:31:39;;;;;;;17.90;10.57;;;;;;;-1.92;69.48;99664.19;5096303;28;20040;-65
2021/01/10 09:34:07;;;;;;;17.13;11.07;;;;;;;-1.80;69.52;99665.19;5096217;28;20063;-65
2021/01/10 09:36:33;;;;;;;16.40;11.40;;;;;;;-1.74;69.17;99672.59;5095565;28;20490;-65
2021/01/10 09:39:00;;;;;;;16.23;11.95;;;;;;;-1.68;69.42;99668.78;5094790;28;20139;-65
2021/01/10 09:41:27;;;;;;;18.20;12.30;;;;;;;-1.55;69.58;99673.16;5096003;28;20047;-65
2021/01/10 09:43:58;;;;;;;18.23;12.48;;;;;;;-1.45;69.17;99670.81;5095923;28;20508;-65
2021/01/10 09:46:31;;;;;;;17.67;12.05;;;;;;;-1.34;69.43;99670.16;5095795;28;20040;-66
2021/01/10 09:49:00;;;;;;;20.27;13.23;;;;;;;-1.15;69.39;99669.81;5095791;28;20043;-66
2021/01/10 09:51:38;;;;;;;20.58;13.75;;;;;;;-0.95;68.86;99668.53;5096015;28;20069;-67
2021/01/10 09:54:13;;;;;;;20.20;14.38;;;;;;;-0.80;68.68;99676.16;5096058;28;20036;-65
2021/01/10 09:56:47;;;;;;;18.58;13.55;;;;;;;-0.73;68.58;99668.84;5096133;28;20063;-65
2021/01/10 09:59:47;;;;;;;21.15;14.00;;;;;;;-0.68;68.46;99671.13;5096039;28;20040;-65
2021/01/10 10:02:17;;;;;;;21.05;13.52;;;;;;;-0.57;68.53;99669.50;5096005;28;20052;-65
2021/01/10 10:04:46;;;;;;;17.40;13.02;;;;;;;-0.46;68.18;99660.97;5095374;28;20047;-65
2021/01/10 10:07:14;;;;;;;21.52;14.77;;;;;;;-0.37;68.25;99655.19;5095687;28;20464;-65
2021/01/10 10:09:50;;;;;;;17.20;12.35;;;;;;;-0.28;67.69;99654.56;5095665;28;20044;-65
2021/01/10 10:12:17;;;;;;;18.35;12.70;;;;;;;-0.28;67.72;99651.97;5094391;28;20048;-65
2021/01/10 10:14:52;;;;;;;20.70;14.73;;;;;;;-0.17;67.24;99653.00;5093989;28;20406;-65
2021/01/10 10:17:20;;;;;;;21.63;14.52;;;;;;;-0.15;67.68;99649.38;5095463;28;20040;-65
2021/01/10 10:19:47;;;;;;;20.08;13.77;;;;;;;-0.06;67.38;99651.34;5094913;28;20076;-66
2021/01/10 10:22:22;;;;;;;23.17;15.60;;;;;;;0.07;67.39;99640.94;5094985;28;20513;-66
2021/01/10 10:24:50;;;;;;;22.90;13.95;;;;;;;0.02;67.05;99639.59;5094765;28;20051;-65
2021/01/10 10:27:17;;;;;;;23.92;14.07;;;;;;;0.06;67.14;99641.06;5093932;28;20055;-65
2021/01/10 10:29:43;;;;;;;21.80;14.23;;;;;;;0.14;66.93;99639.59;5095143;28;20047;-65
2021/01/10 10:32:10;;;;;;;23.23;15.23;;;;;;;0.27;66.75;99642.16;5095263;28;20113;-65
2021/01/10 10:34:39;;;;;;;23.83;14.05;;;;;;;0.28;66.86;99641.22;5095073;28;20036;-66
2021/01/10 10:37:07;;;;;;;25.55;14.25;;;;;;;0.34;66.74;99640.81;5093619;28;20051;-65
2021/01/10 10:39:35;;;;;;;21.50;14.15;;;;;;;0.47;66.75;99639.00;5094880;28;20058;-64
2021/01/10 10:42:02;;;;;;;21.63;15.00;;;;;;;0.55;66.53;99633.25;5094744;28;20043;-65
2021/01/10 10:44:28;;;;;;;20.23;14.50;;;;;;;0.57;66.10;99636.59;5094419;28;20428;-64
2021/01/10 10:46:55;;;;;;;21.05;13.38;;;;;;;0.57;66.40;99634.00;5094589;28;20044;-64
2021/01/10 10:49:22;;;;;;;23.75;14.98;;;;;;;0.67;66.58;99632.38;5094760;28;20048;-65
2021/01/10 10:51:50;;;;;;;21.58;14.23;;;;;;;0.74;66.28;99632.78;5094965;28;20494;-65
2021/01/10 10:54:16;;;;;;;19.52;14.38;;;;;;;0.83;66.47;99628.69;5094449;28;20456;-65
2021/01/10 10:56:43;;;;;;;23.75;14.65;;;;;;;0.83;66.26;99623.47;5094421;28;20044;-65
2021/01/10 10:59:10;;;;;;;20.10;13.68;;;;;;;0.95;66.21;99620.00;5094334;28;20040;-65
2021/01/10 11:01:38;;;;;;;17.83;12.50;;;;;;;0.97;66.05;99616.31;5094433;28;20040;-65
2021/01/10 11:04:05;;;;;;;19.63;12.70;;;;;;;1.01;65.37;99622.13;5093182;28;20478;-66
2021/01/10 11:06:32;;;;;;;23.42;15.50;;;;;;;1.06;65.42;99619.19;5093784;28;20047;-65
2021/01/10 11:09:00;;;;;;;19.98;12.13;;;;;;;1.07;65.14;99610.47;5095339;28;20487;-65
2021/01/10 11:11:38;;;;;;;15.27;10.70;;;;;;;1.13;65.38;99610.00;5095358;28;20431;-65
2021/01/10 11:14:07;;;;;;;17.75;11.52;;;;;;;1.21;65.18;99607.66;5094682;28;20046;-65
2021/01/10 11:16:36;;;;;;;14.45;9.93;;;;;;;1.27;65.09;99606.41;5093601;28;20036;-65
2021/01/10 11:19:04;;;;;;;14.88;10.25;;;;;;;1.29;64.67;99602.72;5094036;28;20482;-65
2021/01/10 11:21:33;;;;;;;14.48;9.88;;;;;;;1.30;64.50;99599.16;5093862;28;20051;-65
2021/01/10 11:24:01;;;;;;;14.05;9.60;;;;;;;1.38;63.97;99601.19;5093867;28;20040;-65
2021/01/10 11:26:28;;;;;;;12.82;9.27;;;;;;;1.37;63.97;99597.75;5093474;28;20036;-66
2021/01/10 11:28:55;;;;;;;13.23;8.77;;;;;;;1.44;63.67;99600.75;5093654;28;20111;-65
2021/01/10 11:31:24;;;;;;;12.98;9.38;;;;;;;1.44;63.04;99591.16;5092427;28;20056;-65
2021/01/10 11:33:51;;;;;;;11.88;9.18;;;;;;;1.43;63.41;99584.28;5094107;28;20054;-65
2021/01/10 11:36:19;;;;;;;14.82;9.20;;;;;;;1.52;63.09;99577.56;5093362;28;20395;-65